Weather at Garner Airport

Public forecast

Using degrees Fahrenheit for public forecast. Weather courtesy of forecast.io.

Closest aviation weather report (METAR) to Garner Airport

Closest report is Suffolk Executive Airport, 11.1 nm (20.6 km) SSE. Retrieved 2020/11/28 06:35 UTC (2 minutes ago):

KSFQ 280635Z AUTO 00000KT 1/4SM FG OVC002 11/11 A2999 RMK AO2 T01140114

Closest aviation forecast (TAF) to Garner Airport

Forecast is more than 12 hours old.

Closest forecast is Felker Army Air Field, 17.0 nm (31.4 km) NNE. Retrieved 2020/11/25 19:36 UTC (2 days ago):

TAF KFAF 251900Z 2519/2701 VRB06KT 9999 SCT070 BKN250 QNH3028INS BECMG 2608/2609 18009KT 9999 BKN030 QNH3006INS BECMG 2611/2612 19009KT 6000 -SHRA SCT005 OVC010 QNH3007INS BECMG 2618/2619 VRB06KT 9999 NSW BKN005 OVC010 QNH3003INS TX21/2619Z TN15/2519Z LAST NO AMDS AFT 2519 NEXT 3011